Weer

Current Metar

EHAM: EHAM 271855Z 07010KT 030V090 CAVOK 19/13 Q1004 NOSIG
EHRD: EHRD 271855Z AUTO 05007KT 9999 FEW030 SCT042 BKN047 18/15 Q1004 NOSIG
EHGG: EHGG 271855Z AUTO 06009KT 9999 DZ NSC 16/13 Q1006 REDZ TEMPO 8000 RA NSC
EHEH: EHEH 271855Z AUTO 06006KT 030V100 9999 SCT094 OVC100 20/15 Q1003 BLU 06008KT CAVOK TEMPO 4500 SHRA SCT040CB BKN050
EHBK: EHBK 271855Z AUTO 06009KT 9999 BKN043 BKN048 21/17 Q1003 TEMPO FM1900 5000 RA SHRA SCT040CB

Search METAR


Wind Charts

+ 0600h
FL100 FL180 FL240 FL300 FL340

+ 1200h
FL100 FL180 FL240 FL300 FL340

+ 1800h
FL100 FL180 FL240 FL300 FL340

+ 2400h
FL100 FL180 FL240 FL300 FL340

Europe & Africa charts only, updated daily.

 

Weather Services

MET Office